Flight Track Log - Related Links

Times and Time Zones

All times are in EST time to prevent confusion due to time zone crossing. See the N1944E flight status page for this flight to view local times or setup timezone preferences in your user account.

Time Position Orientation Groundspeed Altitude Reporting Facility
EST Latitude Longitude Course Direction KTS MPH feet Rate Location/Type
Thu 07:19:30 PM 41.6197 -109.0989 331° Northwest 136 157 8,400  Level Denver Center
Thu 07:20:32 PM 41.6075 -109.0317 104° East 168 193 9,600 1,065 Climbing Denver Center
Thu 07:21:34 PM 41.5789 -108.9800 127° Southeast 175 201 10,600 968 Climbing Denver Center
Thu 07:22:00 PM 41.7371 -108.7929 55° Northeast  Level Estimated
Thu 07:22:36 PM 41.5894 -108.9147 78° East 186 214 11,600  Level Denver Center
Thu 07:23:00 PM 41.7653 -108.7380 56° Northeast  Level FlightAware Approximate
Thu 07:23:38 PM 41.6336 -108.8769 33° Northeast 173 199 12,500  Level Denver Center
Thu 07:24:48 PM 41.6725 -108.8150 50° Northeast 194 223 13,000 229 Climbing Salt Lake Center
Thu 07:25:49 PM 41.7133 -108.7425 53° Northeast 212 244 13,000  Level Salt Lake Center
Thu 07:26:51 PM 41.7489 -108.6811 52° Northeast 216 249 13,000  Level Salt Lake Center
Thu 07:27:53 PM 41.7817 -108.6189 55° Northeast 216 249 13,000  Level Salt Lake Center
Thu 07:28:54 PM 41.8194 -108.5486 54° Northeast 211 243 13,000  Level Salt Lake Center
Thu 07:29:56 PM 41.8514 -108.4903 54° Northeast 207 238 13,000 48 Level Salt Lake Center
Thu 07:30:58 PM 41.8878 -108.4222 54° Northeast 203 234 13,100 49 Climbing Salt Lake Center
Thu 07:31:59 PM 41.9183 -108.3608 56° Northeast 204 235 13,100  Level Salt Lake Center
Thu 07:33:01 PM 41.9581 -108.2906 53° Northeast 209 241 13,100  Level Salt Lake Center
Thu 07:34:03 PM 41.9908 -108.2303 54° Northeast 209 241 13,100  Level Salt Lake Center
Thu 07:35:04 PM 42.0286 -108.1575 55° Northeast 211 243 13,100  Level Salt Lake Center
Thu 07:36:06 PM 42.0622 -108.0967 53° Northeast 211 243 13,100  Level Salt Lake Center
Thu 07:37:08 PM 42.0956 -108.0344 54° Northeast 213 245 13,100  Level Salt Lake Center
Thu 07:38:09 PM 42.1342 -107.9611 55° Northeast 214 246 13,100  Level Salt Lake Center
Thu 07:39:11 PM 42.1672 -107.8983 55° Northeast 214 246 13,100  Level Salt Lake Center
Thu 07:40:13 PM 42.2058 -107.8250 55° Northeast 214 246 13,100  Level Salt Lake Center
Thu 07:41:15 PM 42.2389 -107.7631 54° Northeast 214 246 13,100  Level Salt Lake Center
Thu 07:42:16 PM 42.2775 -107.6922 54° Northeast 212 244 13,100  Level Salt Lake Center
Thu 07:43:18 PM 42.3106 -107.6289 55° Northeast 213 245 13,100  Level Salt Lake Center
Thu 07:44:30 PM 42.3458 -107.5553 57° Northeast 211 243 13,100  Level Denver Center
Thu 07:45:22 PM 42.3750 -107.4942 57° Northeast 206 237 13,100 -53 Level Salt Lake Center
Thu 07:46:23 PM 42.4064 -107.4311 56° Northeast 209 241 13,000 -49 Descending Salt Lake Center
Thu 07:47:25 PM 42.4436 -107.3636 53° Northeast 205 236 13,000  Level Salt Lake Center
Thu 07:48:27 PM 42.4744 -107.3097 52° Northeast 195 224 13,000  Level Salt Lake Center
Thu 07:49:29 PM 42.5089 -107.2400 56° Northeast 197 227 13,000  Level Salt Lake Center
Thu 07:50:30 PM 42.5386 -107.1803 56° Northeast 200 230 13,000  Level Salt Lake Center
Thu 07:51:32 PM 42.5756 -107.1097 55° Northeast 203 234 13,000  Level Salt Lake Center
Thu 07:52:34 PM 42.6092 -107.0508 52° Northeast 206 237 13,000 -48 Level Salt Lake Center
Thu 07:53:36 PM 42.6414 -106.9917 53° Northeast 205 236 12,900 -581 Descending Salt Lake Center
Thu 07:54:38 PM 42.6769 -106.9169 57° Northeast 205 236 11,800 -829 Descending Salt Lake Center
Thu 07:55:39 PM 42.7069 -106.8469 60° Northeast 209 241 11,200 -512 Descending Salt Lake Center
Thu 07:58:09 PM 42.8269 -106.7503 58° Northeast 172 198 10,000 -368 Descending Denver Center
Thu 07:59:11 PM 42.8644 -106.7156 34° Northeast 166 191 9,900 -726 Descending Denver Center
Thu 08:00:13 PM 42.9036 -106.6500 51° Northeast 200 230 8,500 -726 Descending Denver Center
Thu 08:01:15 PM 42.9381 -106.5972 48° Northeast 202 232 8,400 -482 Descending Denver Center
Thu 08:02:30 PM 42.9856 -106.5147 52° Northeast 179 206 7,400 -438 Descending Denver Center
Thu 08:03:32 PM 43.0286 -106.5244 351° North 187 215 7,400 -48 Level Denver Center
Thu 08:04:34 PM 42.9853 -106.5122 168° South 167 192 7,300 -145 Descending Denver Center
Thu 08:05:36 PM 42.9719 -106.4561 108° East 159 183 7,100 -194 Descending Denver Center

Login

Don't have an account? Register now (free) for customized features, flight alerts, and more!